Time;durP1;ratioP1;P1;durP2;ratioP2;P2;SDS_P1;SDS_P2;PMS_P1;PMS_P2;Temp;Humidity;BMP_temperature;BMP_pressure;BME280_temperature;BME280_humidity;BME280_pressure;Samples;Min_cycle;Max_cycle;Signal;HPM_P1;HPM_P2
2022/10/08 00:02:25;;;;;;;34.78;30.50;;;22.00;59.10;;;;;;4857685;54;21056;-30
2022/10/08 00:07:26;;;;;;;37.53;31.55;;;22.00;59.00;;;;;;4795820;58;21108;-30
2022/10/08 00:12:26;;;;;;;38.03;32.28;;;22.00;59.60;;;;;;4804205;54;21094;-28
2022/10/08 00:17:27;;;;;;;36.35;31.33;;;22.00;59.00;;;;;;4821338;54;21040;-37
2022/10/08 00:22:28;;;;;;;35.53;31.23;;;22.00;59.00;;;;;;4808222;54;21545;-34
2022/10/08 00:27:29;;;;;;;34.65;30.77;;;22.00;59.00;;;;;;4869904;54;21027;-36
2022/10/08 00:32:30;;;;;;;35.13;30.17;;;22.00;59.00;;;;;;4795316;58;21063;-33
2022/10/08 00:37:30;;;;;;;34.70;29.87;;;22.00;58.90;;;;;;4800378;54;21472;-27
2022/10/08 00:42:31;;;;;;;34.03;29.63;;;22.00;59.00;;;;;;4814536;54;21059;-30
2022/10/08 00:47:41;;;;;;;32.33;27.62;;;22.00;58.90;;;;;;4815583;54;21063;-28
2022/10/08 00:52:48;;;;;;;37.10;29.67;;;22.00;58.90;;;;;;4855098;54;21095;-28
2022/10/08 00:57:51;;;;;;;32.95;29.37;;;22.00;58.90;;;;;;4807904;54;21071;-27
2022/10/08 01:02:53;;;;;;;34.75;30.10;;;22.00;58.80;;;;;;4795859;58;22105;-36
2022/10/08 01:08:14;;;;;;;33.53;29.58;;;22.00;58.80;;;;;;4796018;58;21182;-33
2022/10/08 01:16:11;;;;;;;33.97;27.95;;;22.00;58.80;;;;;;4804522;54;21015;-36
2022/10/08 01:21:21;;;;;;;33.28;27.42;;;22.00;58.80;;;;;;4848728;54;21032;-28
2022/10/08 01:26:56;;;;;;;33.42;28.67;;;22.00;58.80;;;;;;4801127;54;21498;-28
2022/10/08 01:32:09;;;;;;;33.17;28.50;;;22.00;58.70;;;;;;4799984;54;21004;-33
2022/10/08 01:37:18;;;;;;;31.42;27.50;;;22.00;58.70;;;;;;4871645;54;21019;-29
2022/10/08 01:42:22;;;;;;;32.63;27.75;;;22.00;58.70;;;;;;4814022;54;21055;-32
2022/10/08 01:47:26;;;;;;;32.60;28.33;;;22.00;58.70;;;;;;4853073;54;21486;-28
2022/10/08 01:52:35;;;;;;;31.83;27.13;;;22.00;58.70;;;;;;4803010;54;21561;-33
2022/10/08 01:57:38;;;;;;;33.88;27.35;;;22.00;58.70;;;;;;4808020;54;21576;-37
2022/10/08 02:02:41;;;;;;;30.80;27.30;;;22.00;58.60;;;;;;4804300;54;21063;-35
2022/10/08 02:07:42;;;;;;;32.58;27.62;;;22.00;58.60;;;;;;4812250;54;21088;-38
2022/10/08 02:12:44;;;;;;;32.65;27.30;;;22.00;58.60;;;;;;4883002;54;21498;-31
2022/10/08 02:21:02;;;;;;;32.97;27.40;;;22.00;58.60;;;;;;4813014;54;21000;-26
2022/10/08 02:26:06;;;;;;;29.45;25.88;;;22.00;58.60;;;;;;4807465;54;21056;-28
2022/10/08 02:31:36;;;;;;;29.80;25.92;;;22.00;58.50;;;;;;4812581;54;21075;-36
2022/10/08 02:36:45;;;;;;;28.48;25.12;;;22.00;58.50;;;;;;4816936;54;21047;-33
2022/10/08 02:41:52;;;;;;;31.58;26.20;;;22.00;58.50;;;;;;4794908;58;21074;-30
2022/10/08 02:46:55;;;;;;;29.90;25.05;;;22.00;58.50;;;;;;4815106;54;21193;-28
2022/10/08 02:52:00;;;;;;;31.55;26.30;;;22.00;58.50;;;;;;4825513;54;21008;-38
2022/10/08 02:57:17;;;;;;;28.45;25.35;;;22.00;58.50;;;;;;4807569;54;21008;-29
2022/10/08 03:02:34;;;;;;;28.52;24.75;;;22.00;58.40;;;;;;4796432;54;21003;-30
2022/10/08 03:07:35;;;;;;;29.63;24.60;;;22.00;58.40;;;;;;4836019;54;21468;-31
2022/10/08 03:12:36;;;;;;;26.65;23.75;;;22.00;58.40;;;;;;4794879;58;21035;-28
2022/10/08 03:17:41;;;;;;;26.42;23.55;;;22.00;58.40;;;;;;4824257;54;21063;-37
2022/10/08 03:22:42;;;;;;;29.23;24.58;;;22.00;58.30;;;;;;4844330;54;21020;-38
2022/10/08 03:27:43;;;;;;;28.40;23.98;;;22.00;58.30;;;;;;4812149;54;21004;-35
2022/10/08 03:32:46;;;;;;;26.95;24.05;;;22.00;58.40;;;;;;4803127;54;21075;-28
2022/10/08 03:37:47;;;;;;;28.17;24.20;;;22.00;58.30;;;;;;4842313;54;21633;-30
2022/10/08 03:42:50;;;;;;;27.00;23.98;;;22.00;58.30;;;;;;4796002;55;20984;-35
2022/10/08 03:47:51;;;;;;;27.42;23.58;;;22.00;58.30;;;;;;4795212;58;21003;-33
2022/10/08 03:52:52;;;;;;;26.35;23.05;;;22.00;58.20;;;;;;4797290;54;21647;-34
2022/10/08 03:57:53;;;;;;;26.55;22.75;;;22.00;58.20;;;;;;4796299;58;21008;-36
2022/10/08 04:02:53;;;;;;;26.48;23.00;;;22.00;58.20;;;;;;4824876;54;21028;-32
2022/10/08 04:07:54;;;;;;;26.83;22.70;;;22.00;58.20;;;;;;4795132;58;20992;-32
2022/10/08 04:12:55;;;;;;;26.00;23.27;;;22.00;58.20;;;;;;4800880;54;21004;-29
2022/10/08 04:17:56;;;;;;;26.27;22.45;;;22.00;58.10;;;;;;4800609;54;21075;-32
2022/10/08 04:22:56;;;;;;;24.40;21.80;;;22.00;58.10;;;;;;4827683;54;21055;-35
2022/10/08 04:27:57;;;;;;;25.55;22.15;;;21.90;58.00;;;;;;4839918;54;21056;-35
2022/10/08 04:32:58;;;;;;;24.08;21.27;;;21.90;57.90;;;;;;4818505;54;21500;-29
2022/10/08 04:37:59;;;;;;;25.67;21.73;;;22.00;58.10;;;;;;4886327;54;21047;-35
2022/10/08 04:43:00;;;;;;;25.15;22.50;;;21.90;58.00;;;;;;4796286;58;21090;-34
2022/10/08 04:48:02;;;;;;;25.17;21.50;;;21.90;58.00;;;;;;4815479;54;21553;-25
2022/10/08 04:53:03;;;;;;;23.15;20.48;;;21.90;57.90;;;;;;4801841;54;21040;-34
2022/10/08 04:58:04;;;;;;;25.73;21.75;;;21.90;57.80;;;;;;4828289;54;20984;-37
2022/10/08 05:03:05;;;;;;;23.05;20.58;;;21.90;57.90;;;;;;4842439;54;21040;-28
2022/10/08 05:08:06;;;;;;;23.20;20.70;;;22.00;57.90;;;;;;4855953;54;21019;-30
2022/10/08 05:13:06;;;;;;;24.80;21.30;;;21.90;57.90;;;;;;4797339;54;21000;-37
2022/10/08 05:18:07;;;;;;;23.87;21.12;;;21.90;57.90;;;;;;4801409;54;21016;-25
2022/10/08 05:23:08;;;;;;;22.98;20.08;;;21.90;57.90;;;;;;4795261;55;21016;-34
2022/10/08 05:28:09;;;;;;;23.15;20.73;;;21.90;57.80;;;;;;4805956;54;21017;-32
2022/10/08 05:33:09;;;;;;;22.40;19.80;;;22.00;57.90;;;;;;4801341;54;21513;-26
2022/10/08 05:38:10;;;;;;;23.65;20.60;;;21.90;57.80;;;;;;4809440;54;21052;-36
2022/10/08 05:43:14;;;;;;;23.55;20.15;;;21.90;57.80;;;;;;4795607;55;21031;-31
2022/10/08 05:48:15;;;;;;;23.65;20.70;;;21.90;57.70;;;;;;4795254;54;21542;-34
2022/10/08 05:53:15;;;;;;;21.50;19.15;;;21.90;57.80;;;;;;4802156;54;21012;-25
2022/10/08 05:58:16;;;;;;;23.62;20.17;;;21.90;57.80;;;;;;4815694;54;21016;-30
2022/10/08 06:03:17;;;;;;;20.92;18.73;;;21.90;57.70;;;;;;4804310;54;21529;-28
2022/10/08 06:08:18;;;;;;;23.55;20.48;;;21.90;58.10;;;;;;4796343;54;21069;-33
2022/10/08 06:13:20;;;;;;;24.33;20.75;;;21.90;57.70;;;;;;4820820;54;21016;-36
2022/10/08 06:18:21;;;;;;;23.98;20.37;;;21.90;57.70;;;;;;4848331;54;21011;-36
2022/10/08 06:23:23;;;;;;;22.90;19.90;;;21.90;57.60;;;;;;4811687;54;20992;-29
2022/10/08 06:28:24;;;;;;;24.40;21.08;;;21.90;57.60;;;;;;4795263;58;21604;-31
2022/10/08 06:33:25;;;;;;;25.30;21.23;;;21.90;57.50;;;;;;4830287;54;21075;-28
2022/10/08 06:38:26;;;;;;;23.75;21.15;;;21.90;57.60;;;;;;4805046;54;21076;-31
2022/10/08 06:43:27;;;;;;;23.92;21.15;;;21.90;57.50;;;;;;4803684;54;21000;-36
2022/10/08 06:48:27;;;;;;;24.42;21.77;;;21.90;57.50;;;;;;4805175;54;21481;-31
2022/10/08 06:53:28;;;;;;;23.25;20.75;;;21.90;57.40;;;;;;4804886;54;21030;-32
2022/10/08 06:58:30;;;;;;;23.92;20.88;;;21.90;57.50;;;;;;4796298;58;21058;-36
2022/10/08 07:03:31;;;;;;;26.23;21.42;;;21.90;57.50;;;;;;4804855;54;21024;-30
2022/10/08 07:08:35;;;;;;;23.17;20.48;;;21.90;57.50;;;;;;4814796;54;21047;-30
2022/10/08 07:13:37;;;;;;;24.67;21.92;;;22.00;57.50;;;;;;4838600;54;21091;-29
2022/10/08 07:18:39;;;;;;;23.92;21.33;;;21.90;57.60;;;;;;4817884;54;20999;-36
2022/10/08 07:23:42;;;;;;;25.55;21.33;;;21.90;57.40;;;;;;4822731;54;21063;-33
2022/10/08 07:29:47;;;;;;;25.02;21.83;;;21.90;57.40;;;;;;4803599;54;21676;-26
2022/10/08 07:34:48;;;;;;;24.77;20.98;;;22.00;57.40;;;;;;4810008;54;21043;-34
2022/10/08 07:39:50;;;;;;;27.52;22.27;;;21.90;57.40;;;;;;4850118;54;21565;-26
2022/10/08 07:44:51;;;;;;;27.35;22.33;;;21.90;57.40;;;;;;4816633;54;20992;-33
2022/10/08 07:49:52;;;;;;;28.48;22.52;;;21.90;57.30;;;;;;4841543;54;21071;-27
2022/10/08 07:54:53;;;;;;;23.67;21.08;;;21.90;57.50;;;;;;4802258;54;21004;-31
2022/10/08 07:59:53;;;;;;;25.27;22.50;;;21.90;57.40;;;;;;4828934;54;21004;-27
2022/10/08 08:04:54;;;;;;;25.88;21.65;;;21.90;57.40;;;;;;4837539;54;21023;-30
2022/10/08 08:09:55;;;;;;;25.40;22.05;;;21.90;57.40;;;;;;4870613;54;21057;-27
2022/10/08 08:14:58;;;;;;;27.37;22.35;;;21.90;57.40;;;;;;4795937;58;21040;-31
2022/10/08 08:19:59;;;;;;;27.42;22.98;;;21.90;57.40;;;;;;4808191;54;21039;-27
2022/10/08 08:25:00;;;;;;;26.83;22.50;;;22.00;57.50;;;;;;4825935;54;21060;-30
2022/10/08 08:30:01;;;;;;;28.58;22.67;;;21.90;57.40;;;;;;4843315;54;21509;-29
2022/10/08 08:35:02;;;;;;;24.85;21.75;;;22.00;57.50;;;;;;4835051;54;21000;-27
2022/10/08 08:40:03;;;;;;;25.50;22.70;;;22.00;57.50;;;;;;4843982;54;21031;-27
2022/10/08 08:45:24;;;;;;;26.33;22.23;;;22.00;57.50;;;;;;4806068;54;20999;-26
2022/10/08 08:50:33;;;;;;;26.55;22.98;;;22.00;57.50;;;;;;4819807;54;21529;-26
2022/10/08 08:55:41;;;;;;;26.02;22.70;;;22.00;57.50;;;;;;4796007;55;21560;-37
2022/10/08 09:00:43;;;;;;;;;;;22.00;57.60;;;;;;4817746;54;21123;-31
2022/10/08 09:05:49;;;;;;;26.80;23.15;;;22.00;57.60;;;;;;4824756;54;20116;-30
2022/10/08 09:10:58;;;;;;;26.55;22.90;;;22.00;57.60;;;;;;4800383;54;21012;-30
2022/10/08 09:15:59;;;;;;;29.20;24.50;;;22.00;57.60;;;;;;4812747;54;21119;-30
2022/10/08 09:21:00;;;;;;;27.50;23.70;;;22.00;57.60;;;;;;4803341;54;21103;-35
2022/10/08 09:26:18;;;;;;;29.10;24.10;;;22.00;57.60;;;;;;4813990;54;22201;-32
2022/10/08 09:31:54;;;;;;;27.77;23.73;;;22.00;57.60;;;;;;4821404;54;21685;-27
2022/10/08 09:37:05;;;;;;;26.27;23.20;;;22.00;57.60;;;;;;4806512;54;21102;-31
2022/10/08 09:42:19;;;;;;;26.67;23.25;;;22.00;57.70;;;;;;4829526;54;21024;-32
2022/10/08 09:47:23;;;;;;;27.60;23.17;;;22.00;57.70;;;;;;4844251;54;21470;-29
2022/10/08 09:52:29;;;;;;;29.70;24.58;;;22.00;57.70;;;;;;4794730;58;21012;-31
2022/10/08 09:57:32;;;;;;;29.25;24.63;;;22.00;57.70;;;;;;4807050;54;21107;-31
2022/10/08 10:02:36;;;;;;;30.25;24.30;;;22.00;57.70;;;;;;4809186;54;21080;-33
2022/10/08 10:07:43;;;;;;;28.73;24.98;;;22.00;57.80;;;;;;4825751;54;20996;-28
2022/10/08 10:12:49;;;;;;;30.12;25.42;;;22.00;57.70;;;;;;4813984;54;21094;-33
2022/10/08 10:18:31;;;;;;;26.77;23.87;;;22.00;57.80;;;;;;4807350;54;21514;-34
2022/10/08 10:23:50;;;;;;;26.92;23.62;;;22.00;57.80;;;;;;4819231;54;21484;-26
2022/10/08 10:28:56;;;;;;;28.40;23.87;;;22.00;57.80;;;;;;4804194;54;21000;-30
2022/10/08 10:34:09;;;;;;;26.40;23.55;;;22.00;57.80;;;;;;4805965;54;21024;-31
2022/10/08 10:40:44;;;;;;;26.75;23.85;;;22.00;57.80;;;;;;4812488;54;21031;-28
2022/10/08 10:45:58;;;;;;;28.02;23.80;;;22.10;57.90;;;;;;4847369;54;21533;-28
2022/10/08 10:52:33;;;;;;;26.55;23.25;;;22.00;57.90;;;;;;4844924;54;21109;-31
2022/10/08 10:57:59;;;;;;;26.20;23.30;;;22.00;57.90;;;;;;4862343;54;21000;-36
2022/10/08 11:03:38;;;;;;;25.55;22.73;;;22.00;57.90;;;;;;4820319;54;21015;-31
2022/10/08 11:15:31;;;;;;;25.95;23.00;;;22.00;57.90;;;;;;4797105;54;21036;-31
2022/10/08 11:22:05;;;;;;;27.23;23.17;;;22.00;57.90;;;;;;4797887;54;21485;-32
2022/10/08 11:27:41;;;;;;;26.87;23.35;;;22.00;58.00;;;;;;4808572;54;21485;-32
2022/10/08 11:32:49;;;;;;;29.13;24.63;;;22.00;58.00;;;;;;4794922;58;21039;-29
2022/10/08 11:38:03;;;;;;;26.65;23.00;;;22.10;58.00;;;;;;4831988;54;21036;-29
2022/10/08 11:43:11;;;;;;;25.73;22.55;;;22.00;58.00;;;;;;4812189;54;21012;-28
2022/10/08 11:48:34;;;;;;;26.92;23.70;;;22.10;58.10;;;;;;4899321;54;20987;-29
2022/10/08 11:53:35;;;;;;;26.98;23.50;;;22.10;58.10;;;;;;4802688;54;20992;-30
2022/10/08 11:58:36;;;;;;;26.02;22.80;;;22.10;58.10;;;;;;4822333;54;21059;-30
2022/10/08 12:03:40;;;;;;;25.17;21.87;;;22.10;58.10;;;;;;4796043;58;21484;-29
2022/10/08 12:08:58;;;;;;;27.10;23.27;;;22.10;58.10;;;;;;4817157;54;21072;-26
2022/10/08 12:15:52;;;;;;;25.50;22.73;;;22.10;58.10;;;;;;4813377;54;21071;-28
2022/10/08 12:22:58;;;;;;;26.12;22.50;;;22.10;58.20;;;;;;4810434;54;21103;-34
2022/10/08 12:29:00;;;;;;;25.20;22.30;;;22.10;58.20;;;;;;4814038;54;21474;-32
2022/10/08 12:34:16;;;;;;;28.58;23.42;;;22.10;58.20;;;;;;4824238;54;21043;-29
2022/10/08 12:39:34;;;;;;;25.37;22.40;;;22.10;58.20;;;;;;4812481;54;21545;-28
2022/10/08 12:47:48;;;;;;;26.73;23.38;;;22.10;58.20;;;;;;4795564;58;21584;-28
2022/10/08 12:52:49;;;;;;;26.75;23.20;;;22.10;58.20;;;;;;4826111;54;21039;-32
2022/10/08 12:57:50;;;;;;;26.52;23.73;;;22.10;58.20;;;;;;4795128;55;21051;-32
2022/10/08 13:03:13;;;;;;;25.58;22.13;;;22.10;58.30;;;;;;4833199;54;21011;-29
2022/10/08 13:08:38;;;;;;;26.85;23.27;;;22.10;58.30;;;;;;4804935;54;21536;-32
2022/10/08 13:13:50;;;;;;;25.77;23.05;;;22.10;58.30;;;;;;4844678;54;21127;-27
2022/10/08 13:18:57;;;;;;;25.95;23.15;;;22.10;58.30;;;;;;4857438;54;21474;-28
2022/10/08 13:23:59;;;;;;;26.62;22.20;;;22.10;58.30;;;;;;4810112;54;21545;-28
2022/10/08 13:29:29;;;;;;;24.67;22.02;;;22.10;58.30;;;;;;4795533;58;21012;-33
2022/10/08 13:34:44;;;;;;;25.58;22.70;;;22.10;58.30;;;;;;4794700;58;20988;-30
2022/10/08 13:39:56;;;;;;;25.40;22.52;;;22.10;58.30;;;;;;4804318;54;21016;-28
2022/10/08 13:44:59;;;;;;;26.25;23.42;;;22.10;58.30;;;;;;4803994;54;21038;-34
2022/10/08 13:50:00;;;;;;;24.67;22.05;;;22.10;58.30;;;;;;4801761;54;20987;-28
2022/10/08 13:55:23;;;;;;;25.95;23.15;;;22.10;58.40;;;;;;4794862;58;21470;-33
2022/10/08 14:00:23;;;;;;;23.55;21.05;;;22.10;58.30;;;;;;4798848;54;20996;-28
2022/10/08 14:05:27;;;;;;;25.35;22.55;;;22.10;58.40;;;;;;4859387;54;21024;-31
2022/10/08 14:10:29;;;;;;;24.50;21.48;;;22.10;58.40;;;;;;4868238;54;21091;-28
2022/10/08 14:15:30;;;;;;;26.45;23.58;;;22.10;58.40;;;;;;4795538;58;21214;-28
2022/10/08 14:20:31;;;;;;;26.80;23.30;;;22.10;58.40;;;;;;4807205;54;21423;-28
2022/10/08 14:25:32;;;;;;;26.20;23.05;;;22.10;58.40;;;;;;4801947;54;21094;-27
2022/10/08 14:30:33;;;;;;;27.25;23.52;;;22.10;58.40;;;;;;4807755;54;22315;-34
2022/10/08 14:35:34;;;;;;;24.58;21.95;;;22.10;58.50;;;;;;4795151;58;21007;-32
2022/10/08 14:40:35;;;;;;;25.67;22.90;;;22.10;58.40;;;;;;4828064;54;21020;-37
2022/10/08 14:45:36;;;;;;;26.33;23.52;;;22.10;58.50;;;;;;4815473;54;21139;-31
2022/10/08 14:50:37;;;;;;;25.58;22.33;;;22.10;58.50;;;;;;4812385;54;21063;-32
2022/10/08 14:55:37;;;;;;;25.30;22.58;;;22.10;58.50;;;;;;4802877;54;21000;-35
2022/10/08 15:00:38;;;;;;;25.30;22.60;;;22.10;58.50;;;;;;4846649;54;21972;-31
2022/10/08 15:05:39;;;;;;;25.83;23.12;;;22.10;58.50;;;;;;4794706;55;21007;-33
2022/10/08 15:10:40;;;;;;;25.90;23.10;;;22.10;58.50;;;;;;4816973;54;20992;-27
2022/10/08 15:15:44;;;;;;;25.10;22.33;;;22.10;58.50;;;;;;4794906;58;20996;-27
2022/10/08 15:20:53;;;;;;;26.10;23.10;;;22.10;58.50;;;;;;4839558;54;21424;-28
2022/10/08 15:25:59;;;;;;;28.02;23.45;;;22.10;58.50;;;;;;4830972;54;21520;-31
2022/10/08 15:31:26;;;;;;;27.62;23.77;;;22.10;58.60;;;;;;4821856;54;21549;-27
2022/10/08 15:36:36;;;;;;;26.30;23.40;;;22.10;58.60;;;;;;4802111;54;21126;-33
2022/10/08 15:41:39;;;;;;;25.92;23.20;;;22.10;58.60;;;;;;4812334;54;21119;-32
2022/10/08 15:46:40;;;;;;;27.23;23.38;;;22.10;58.60;;;;;;4832608;54;21612;-30
2022/10/08 15:51:41;;;;;;;25.92;23.12;;;22.20;58.70;;;;;;4820461;54;21055;-30
2022/10/08 15:56:42;;;;;;;26.67;23.15;;;22.10;58.60;;;;;;4814179;54;21511;-34
2022/10/08 16:01:43;;;;;;;27.02;24.10;;;22.10;58.70;;;;;;4810648;54;21068;-31
2022/10/08 16:06:44;;;;;;;27.48;24.48;;;22.20;58.70;;;;;;4812920;54;21070;-35
2022/10/08 16:11:46;;;;;;;26.33;23.52;;;22.10;58.70;;;;;;4836497;54;21574;-36
2022/10/08 16:16:47;;;;;;;27.35;24.37;;;22.10;58.70;;;;;;4796616;55;21072;-35
2022/10/08 16:21:52;;;;;;;25.90;23.12;;;22.20;58.70;;;;;;4879754;54;20996;-29
2022/10/08 16:26:54;;;;;;;26.05;23.25;;;22.10;58.70;;;;;;4856123;54;21081;-35
2022/10/08 16:31:54;;;;;;;27.17;24.12;;;22.20;58.80;;;;;;4799066;54;21040;-36
2022/10/08 16:36:58;;;;;;;29.55;24.98;;;22.10;58.80;;;;;;4802722;54;21962;-25
2022/10/08 16:41:59;;;;;;;27.65;24.75;;;22.10;58.80;;;;;;4795419;54;21541;-31
2022/10/08 16:46:59;;;;;;;26.83;23.83;;;22.20;58.90;;;;;;4830454;54;21061;-28
2022/10/08 16:52:07;;;;;;;27.75;24.33;;;22.10;58.80;;;;;;4801917;54;21007;-37
2022/10/08 16:57:08;;;;;;;28.02;25.00;;;22.20;58.90;;;;;;4816674;54;21551;-27
2022/10/08 17:02:09;;;;;;;27.83;24.92;;;22.20;58.90;;;;;;4800201;54;21533;-28
2022/10/08 17:07:12;;;;;;;27.15;24.17;;;22.20;59.00;;;;;;4816654;54;21004;-30
2022/10/08 17:12:13;;;;;;;29.10;25.92;;;22.20;59.00;;;;;;4795960;54;21458;-34
2022/10/08 17:17:14;;;;;;;29.08;25.60;;;22.20;59.00;;;;;;4795436;58;21047;-27
2022/10/08 17:22:15;;;;;;;28.67;25.12;;;22.20;59.00;;;;;;4873815;54;21058;-31
2022/10/08 17:27:16;;;;;;;28.65;25.52;;;22.20;59.00;;;;;;4807842;54;21581;-34
2022/10/08 17:32:17;;;;;;;29.33;25.45;;;22.20;59.10;;;;;;4795133;58;22093;-30
2022/10/08 17:37:18;;;;;;;29.12;25.20;;;22.10;59.00;;;;;;4811455;54;22327;-28
2022/10/08 17:42:19;;;;;;;29.08;25.95;;;22.20;59.10;;;;;;4821579;54;21031;-33
2022/10/08 17:47:19;;;;;;;29.80;26.60;;;22.20;59.10;;;;;;4839378;54;21016;-28
2022/10/08 17:52:20;;;;;;;31.20;27.50;;;22.20;59.10;;;;;;4802598;54;21053;-26
2022/10/08 17:57:21;;;;;;;28.67;25.45;;;22.10;59.10;;;;;;4816288;54;21019;-35
2022/10/08 18:02:22;;;;;;;31.73;28.33;;;22.20;59.10;;;;;;4832900;54;21556;-31
2022/10/08 18:07:23;;;;;;;31.87;27.45;;;22.20;59.20;;;;;;4859293;54;21067;-30
2022/10/08 18:12:23;;;;;;;31.55;28.15;;;22.10;59.10;;;;;;4844313;54;21024;-26
2022/10/08 18:17:24;;;;;;;33.42;29.25;;;22.20;59.20;;;;;;4799309;54;21474;-25
2022/10/08 18:22:25;;;;;;;32.20;28.12;;;22.20;59.20;;;;;;4839671;54;21015;-27
2022/10/08 18:27:26;;;;;;;32.60;29.02;;;22.20;59.30;;;;;;4795883;58;21004;-27
2022/10/08 18:32:29;;;;;;;31.58;27.92;;;22.20;59.30;;;;;;4817890;54;21012;-33
2022/10/08 18:37:30;;;;;;;34.22;30.05;;;22.20;59.90;;;;;;4816002;54;21023;-35
2022/10/08 18:42:31;;;;;;;33.70;29.92;;;22.10;59.20;;;;;;4796071;54;21076;-36
2022/10/08 18:47:32;;;;;;;36.88;30.52;;;22.20;59.30;;;;;;4804712;54;21478;-27
2022/10/08 18:52:33;;;;;;;34.08;30.33;;;22.20;59.30;;;;;;4858785;54;21028;-27
2022/10/08 18:57:34;;;;;;;33.95;30.20;;;22.20;59.30;;;;;;4817411;54;21012;-27
2022/10/08 19:02:34;;;;;;;35.63;30.02;;;22.20;59.40;;;;;;4797439;54;21621;-31
2022/10/08 19:07:35;;;;;;;35.80;31.90;;;22.20;59.40;;;;;;4808333;54;21011;-26
2022/10/08 19:12:36;;;;;;;36.60;31.35;;;22.20;59.50;;;;;;4795822;58;21008;-28
2022/10/08 19:17:38;;;;;;;36.00;31.75;;;22.20;59.50;;;;;;4795831;58;21004;-29
2022/10/08 19:22:39;;;;;;;36.22;31.83;;;22.20;59.40;;;;;;4796320;54;21062;-28
2022/10/08 19:27:40;;;;;;;37.83;32.17;;;22.20;59.40;;;;;;4799803;54;21004;-28
2022/10/08 19:32:41;;;;;;;38.25;33.28;;;22.20;59.40;;;;;;4816338;54;21012;-27
2022/10/08 19:37:42;;;;;;;37.88;32.85;;;22.20;59.50;;;;;;4807325;54;21087;-27
2022/10/08 19:42:43;;;;;;;39.10;34.42;;;22.20;59.50;;;;;;4798869;54;21040;-28
2022/10/08 19:47:43;;;;;;;39.78;34.63;;;22.20;59.50;;;;;;4875335;54;21024;-28
2022/10/08 19:52:44;;;;;;;41.47;34.15;;;22.20;60.10;;;;;;4853879;54;21504;-28
2022/10/08 19:57:45;;;;;;;40.33;34.60;;;22.20;59.60;;;;;;4848599;54;21556;-29
2022/10/08 20:02:46;;;;;;;39.25;34.47;;;22.20;59.50;;;;;;4818011;54;20991;-34
2022/10/08 20:07:47;;;;;;;39.92;35.58;;;22.20;59.60;;;;;;4809807;54;21004;-32
2022/10/08 20:12:48;;;;;;;42.05;35.47;;;22.20;59.60;;;;;;4795753;54;20996;-30
2022/10/08 20:17:49;;;;;;;40.67;35.75;;;22.20;59.60;;;;;;4819275;54;21546;-27
2022/10/08 20:22:53;;;;;;;40.03;34.58;;;22.20;59.60;;;;;;4839903;54;21093;-33
2022/10/08 20:27:54;;;;;;;39.30;35.05;;;22.20;59.60;;;;;;4796625;54;20983;-26
2022/10/08 20:32:55;;;;;;;40.75;35.88;;;22.20;59.70;;;;;;4846088;54;21032;-29
2022/10/08 20:37:56;;;;;;;40.72;36.35;;;22.20;59.70;;;;;;4837487;54;21059;-28
2022/10/08 20:42:57;;;;;;;41.58;35.75;;;22.20;59.70;;;;;;4799624;54;22017;-27
2022/10/08 20:47:57;;;;;;;43.72;36.95;;;22.20;59.70;;;;;;4795664;58;21032;-30
2022/10/08 20:52:58;;;;;;;40.53;34.88;;;22.20;59.70;;;;;;4794767;58;21032;-29
2022/10/08 20:57:59;;;;;;;40.80;35.30;;;22.10;59.70;;;;;;4795549;58;21016;-30
2022/10/08 21:03:00;;;;;;;42.30;36.60;;;22.20;59.70;;;;;;4795270;58;21047;-29
2022/10/08 21:08:01;;;;;;;42.10;36.83;;;22.20;59.70;;;;;;4813853;54;21003;-30
2022/10/08 21:13:03;;;;;;;40.30;35.90;;;22.20;59.70;;;;;;4805107;54;21494;-29
2022/10/08 21:18:04;;;;;;;42.17;36.50;;;22.20;59.70;;;;;;4871889;54;21031;-28
2022/10/08 21:23:05;;;;;;;42.70;35.83;;;22.20;59.80;;;;;;4871391;54;21044;-28
2022/10/08 21:28:05;;;;;;;41.35;36.85;;;22.10;59.70;;;;;;4795471;58;20999;-28
2022/10/08 21:33:06;;;;;;;40.75;36.25;;;22.20;59.80;;;;;;4815100;54;21031;-28
2022/10/08 21:38:07;;;;;;;41.65;36.08;;;22.20;59.80;;;;;;4815965;54;21063;-27
2022/10/08 21:43:08;;;;;;;43.53;37.47;;;22.20;59.80;;;;;;4795746;58;21003;-30
2022/10/08 21:48:08;;;;;;;43.13;36.05;;;22.20;59.90;;;;;;4817422;54;21498;-27
2022/10/08 21:53:09;;;;;;;41.37;36.75;;;22.10;59.70;;;;;;4815583;54;21550;-28
2022/10/08 21:58:10;;;;;;;40.55;35.47;;;22.10;59.80;;;;;;4816884;54;21494;-26
2022/10/08 22:03:11;;;;;;;45.25;37.88;;;22.20;59.80;;;;;;4846931;54;21003;-28
2022/10/08 22:08:11;;;;;;;42.13;36.90;;;22.20;59.80;;;;;;4813761;54;20983;-28
2022/10/08 22:13:13;;;;;;;41.92;37.33;;;22.20;60.30;;;;;;4809268;54;21075;-30
2022/10/08 22:18:14;;;;;;;40.65;36.05;;;22.20;59.80;;;;;;4795419;58;21015;-27
2022/10/08 22:23:15;;;;;;;41.45;36.92;;;22.20;59.90;;;;;;4806504;54;21012;-31
2022/10/08 22:28:19;;;;;;;40.03;35.63;;;22.20;59.90;;;;;;4808757;54;21059;-29
2022/10/08 22:33:20;;;;;;;42.13;37.53;;;22.10;59.80;;;;;;4803090;54;21361;-28
2022/10/08 22:38:21;;;;;;;41.83;36.97;;;22.20;59.90;;;;;;4795541;58;21518;-29
2022/10/08 22:43:25;;;;;;;42.53;37.90;;;22.20;59.90;;;;;;4804849;54;21011;-34
2022/10/08 22:48:25;;;;;;;43.28;36.33;;;22.20;59.90;;;;;;4796219;54;21003;-31
2022/10/08 22:53:26;;;;;;;45.83;38.70;;;22.10;59.80;;;;;;4803845;54;21538;-27
2022/10/08 22:58:27;;;;;;;40.90;35.90;;;22.10;60.20;;;;;;4819649;54;21413;-27
2022/10/08 23:03:28;;;;;;;40.53;35.60;;;22.20;59.90;;;;;;4860946;54;21041;-36
2022/10/08 23:08:29;;;;;;;40.10;35.72;;;22.20;59.90;;;;;;4795592;58;21039;-36
2022/10/08 23:13:30;;;;;;;43.20;37.45;;;22.20;59.90;;;;;;4810917;54;21048;-31
2022/10/08 23:18:33;;;;;;;43.90;36.90;;;22.10;59.80;;;;;;4814026;54;21019;-35
2022/10/08 23:23:35;;;;;;;42.58;37.97;;;22.10;59.80;;;;;;4810950;54;21011;-31
2022/10/08 23:28:37;;;;;;;42.30;37.58;;;22.20;59.90;;;;;;4823540;54;21521;-31
2022/10/08 23:33:40;;;;;;;41.83;35.92;;;22.10;59.80;;;;;;4807484;54;21051;-32
2022/10/08 23:38:41;;;;;;;43.03;37.08;;;22.20;59.90;;;;;;4804598;54;21561;-27
2022/10/08 23:43:47;;;;;;;43.87;37.08;;;22.10;59.80;;;;;;4804877;54;21000;-36
2022/10/08 23:48:49;;;;;;;41.63;35.75;;;22.10;59.80;;;;;;4802701;54;21000;-31
2022/10/08 23:53:51;;;;;;;41.45;36.90;;;22.10;59.80;;;;;;4795398;58;21019;-28
2022/10/08 23:58:54;;;;;;;40.65;36.25;;;22.10;59.80;;;;;;4795539;58;21051;-30
